Terminal Aerodrome Forecast
Issued by NWS Sioux Falls, SD

Home | Current Version | Previous Version | Text Only | Print | Product List | Glossary On
Versions: 1 2 3 4 5 6 7 8 9 10 11 12 13 14 15 16 17 18 19 20 21 22 23 24 25
000
FTUS43 KFSD 212320
TAFSUX
TAF
KSUX 212320Z 2200/2224 03010KT P6SM SCT100
     FM220600 06007KT P6SM BKN100
     FM220900 09008KT P6SM OVC070
     FM221300 12010KT P6SM OVC050
     FM221600 13013KT P6SM OVC050
     FM221800 14015G22KT P6SM BKN050=

USA.gov is the U.S. government's official web portal to all federal, state and local government web resources and services.